createdAt,value
2022-12-11T00:01:18.040Z,99577.41
2022-12-11T00:03:46.871Z,99584.72
2022-12-11T00:06:15.977Z,99573.41
2022-12-11T00:08:43.173Z,99576.03
2022-12-11T00:11:12.513Z,99577.50
2022-12-11T00:13:39.424Z,99568.03
2022-12-11T00:16:06.537Z,99559.56
2022-12-11T00:18:33.524Z,99568.72
2022-12-11T00:21:13.009Z,99563.84
2022-12-11T00:23:39.935Z,99560.34
2022-12-11T00:26:09.579Z,99558.25
2022-12-11T00:28:36.842Z,99564.72
2022-12-11T00:31:08.174Z,99562.91
2022-12-11T00:33:35.303Z,99564.38
2022-12-11T00:36:02.188Z,99566.00
2022-12-11T00:38:29.298Z,99566.75
2022-12-11T00:40:59.940Z,99576.88
2022-12-11T00:43:26.998Z,99570.38
2022-12-11T00:45:53.970Z,99580.34
2022-12-11T00:48:21.028Z,99581.06
2022-12-11T00:50:48.151Z,99584.44
2022-12-11T00:53:15.541Z,99581.69
2022-12-11T00:55:43.561Z,99579.75
2022-12-11T00:58:11.366Z,99570.19
2022-12-11T01:00:39.256Z,99576.56
2022-12-11T01:03:07.109Z,99576.00
2022-12-11T01:05:46.495Z,99566.81
2022-12-11T01:08:18.033Z,99560.47
2022-12-11T01:10:47.004Z,99555.75
2022-12-11T01:13:14.208Z,99554.41
2022-12-11T01:15:43.750Z,99556.50
2022-12-11T01:18:12.748Z,99560.38
2022-12-11T01:20:41.250Z,99562.75
2022-12-11T01:23:08.540Z,99557.44
2022-12-11T01:25:38.264Z,99564.69
2022-12-11T01:30:33.764Z,99550.38
2022-12-11T01:33:01.326Z,99552.28
2022-12-11T01:35:28.686Z,99557.69
2022-12-11T01:37:55.988Z,99551.19
2022-12-11T01:40:23.093Z,99549.81
2022-12-11T01:42:51.418Z,99543.22
2022-12-11T01:45:39.802Z,99544.94
2022-12-11T01:48:10.389Z,99552.25
2022-12-11T01:50:45.910Z,99546.78
2022-12-11T01:53:17.875Z,99536.31
2022-12-11T01:55:46.909Z,99531.13
2022-12-11T01:58:14.270Z,99529.97
2022-12-11T02:00:41.215Z,99537.13
2022-12-11T02:03:08.653Z,99525.63
2022-12-11T02:05:35.671Z,99533.53
2022-12-11T02:08:03.460Z,99527.84
2022-12-11T02:11:06.625Z,99531.38
2022-12-11T02:13:39.399Z,99526.59
2022-12-11T02:16:09.086Z,99531.16
2022-12-11T02:18:44.762Z,99519.59
2022-12-11T02:21:21.078Z,99521.31
2022-12-11T02:24:05.444Z,99513.97
2022-12-11T02:26:51.293Z,99517.09
2022-12-11T02:29:21.355Z,99519.03
2022-12-11T02:31:55.107Z,99510.00
2022-12-11T02:34:29.187Z,99503.47
2022-12-11T02:36:59.872Z,99508.00
2022-12-11T02:39:27.995Z,99504.66
2022-12-11T02:41:55.986Z,99503.06
2022-12-11T02:44:26.229Z,99500.84
2022-12-11T02:46:54.260Z,99501.16
2022-12-11T02:49:22.238Z,99509.84
2022-12-11T02:51:49.490Z,99506.69
2022-12-11T02:54:20.906Z,99502.63
2022-12-11T02:56:55.065Z,99503.69
2022-12-11T02:59:44.408Z,99493.56
2022-12-11T03:02:13.426Z,99497.06
2022-12-11T03:04:41.222Z,99509.16
2022-12-11T03:07:15.953Z,99505.81
2022-12-11T03:09:44.820Z,99497.63
2022-12-11T03:12:16.741Z,99499.34
2022-12-11T03:14:44.042Z,99496.28
2022-12-11T03:17:20.373Z,99499.03
2022-12-11T03:20:17.913Z,99497.69
2022-12-11T03:22:56.067Z,99490.94
2022-12-11T03:25:26.833Z,99488.72
2022-12-11T03:28:09.649Z,99493.41
2022-12-11T03:30:37.428Z,99492.16
2022-12-11T03:33:12.170Z,99503.34
2022-12-11T03:35:45.327Z,99502.78
2022-12-11T03:38:23.208Z,99495.72
2022-12-11T03:40:53.371Z,99495.41
2022-12-11T03:43:21.991Z,99493.84
2022-12-11T03:45:50.107Z,99488.56
2022-12-11T03:48:18.112Z,99488.94
2022-12-11T03:50:46.615Z,99491.34
2022-12-11T03:53:13.719Z,99493.22
2022-12-11T03:55:42.450Z,99499.31
2022-12-11T03:58:09.423Z,99492.81
2022-12-11T04:00:36.615Z,99490.78
2022-12-11T04:03:17.931Z,99486.84
2022-12-11T04:05:47.587Z,99491.34
2022-12-11T04:08:15.177Z,99489.91
2022-12-11T04:10:42.494Z,99487.41
2022-12-11T04:13:10.364Z,99485.72
2022-12-11T04:15:38.111Z,99478.63
2022-12-11T04:18:23.994Z,99485.06
2022-12-11T04:21:12.514Z,99483.84
2022-12-11T04:23:58.170Z,99488.41
2022-12-11T04:26:25.833Z,99481.81
2022-12-11T04:28:52.716Z,99482.16
2022-12-11T04:31:22.409Z,99475.78
2022-12-11T04:33:49.536Z,99481.19
2022-12-11T04:36:16.898Z,99475.00
2022-12-11T04:38:43.784Z,99484.31
2022-12-11T04:41:13.693Z,99475.81
2022-12-11T04:43:40.912Z,99476.88
2022-12-11T04:46:14.992Z,99476.91
2022-12-11T04:48:42.631Z,99477.22
2022-12-11T04:51:10.447Z,99472.31
2022-12-11T04:53:38.159Z,99472.47
2022-12-11T04:56:07.371Z,99477.56
2022-12-11T04:58:36.022Z,99471.81
2022-12-11T05:01:22.775Z,99473.72
2022-12-11T05:03:50.468Z,99466.50
2022-12-11T05:06:17.533Z,99463.38
2022-12-11T05:08:45.465Z,99460.34
2022-12-11T05:11:15.042Z,99460.59
2022-12-11T05:13:42.625Z,99460.94
2022-12-11T05:16:11.631Z,99459.53
2022-12-11T05:18:38.862Z,99461.31
2022-12-11T05:21:08.047Z,99458.09
2022-12-11T05:23:35.485Z,99459.91
2022-12-11T05:26:15.230Z,99459.28
2022-12-11T05:28:42.379Z,99462.09
2022-12-11T05:31:14.105Z,99456.38
2022-12-11T05:33:41.899Z,99454.81
2022-12-11T05:36:09.580Z,99461.66
2022-12-11T05:38:36.452Z,99452.63
2022-12-11T05:41:06.284Z,99451.47
2022-12-11T05:43:34.803Z,99452.59
2022-12-11T05:46:10.549Z,99455.69
2022-12-11T05:48:38.502Z,99446.19
2022-12-11T05:51:06.799Z,99444.13
2022-12-11T05:53:33.851Z,99440.38
2022-12-11T05:56:08.649Z,99438.22
2022-12-11T05:58:35.992Z,99438.47
2022-12-11T06:01:07.041Z,99436.00
2022-12-11T06:03:34.159Z,99432.09
2022-12-11T06:06:05.349Z,99432.22
2022-12-11T06:08:33.057Z,99423.19
2022-12-11T06:11:00.217Z,99419.16
2022-12-11T06:13:27.339Z,99411.66
2022-12-11T06:15:54.430Z,99412.78
2022-12-11T06:18:21.703Z,99414.66
2022-12-11T06:20:48.840Z,99419.13
2022-12-11T06:23:15.795Z,99415.81
2022-12-11T06:25:42.762Z,99420.97
2022-12-11T06:28:09.785Z,99412.53
2022-12-11T06:30:38.594Z,99425.56
2022-12-11T06:33:06.968Z,99421.53
2022-12-11T06:35:38.725Z,99418.38
2022-12-11T06:38:09.151Z,99421.97
2022-12-11T06:40:36.243Z,99419.56
2022-12-11T06:43:04.095Z,99427.41
2022-12-11T06:45:31.252Z,99420.63
2022-12-11T06:47:59.180Z,99426.72
2022-12-11T06:50:26.488Z,99429.53
2022-12-11T06:52:53.475Z,99434.81
2022-12-11T06:55:20.504Z,99442.59
2022-12-11T06:57:47.447Z,99445.09
2022-12-11T07:00:15.173Z,99439.91
2022-12-11T07:02:42.175Z,99435.03
2022-12-11T07:05:09.729Z,99432.75
2022-12-11T07:07:36.901Z,99426.00
2022-12-11T07:10:08.227Z,99424.53
2022-12-11T07:12:35.705Z,99426.44
2022-12-11T07:15:02.981Z,99427.16
2022-12-11T07:17:30.424Z,99425.47
2022-12-11T07:19:57.677Z,99427.97
2022-12-11T07:22:24.761Z,99426.16
2022-12-11T07:24:51.712Z,99429.53
2022-12-11T07:27:19.024Z,99422.88
2022-12-11T07:29:46.247Z,99412.94
2022-12-11T07:32:13.382Z,99413.28
2022-12-11T07:34:40.691Z,99409.16
2022-12-11T07:37:08.060Z,99412.63
2022-12-11T07:39:35.220Z,99417.72
2022-12-11T07:42:02.412Z,99413.41
2022-12-11T07:44:30.021Z,99415.97
2022-12-11T07:46:58.056Z,99405.00
2022-12-11T07:49:24.980Z,99408.59
2022-12-11T07:51:52.079Z,99400.19
2022-12-11T07:54:19.083Z,99404.59
2022-12-11T07:56:53.181Z,99398.72
2022-12-11T07:59:22.666Z,99403.09
2022-12-11T08:01:52.409Z,99398.88
2022-12-11T08:04:20.321Z,99398.81
2022-12-11T08:06:49.379Z,99398.59
2022-12-11T08:09:21.112Z,99397.91
2022-12-11T08:11:54.072Z,99405.75
2022-12-11T08:14:22.508Z,99407.50
2022-12-11T08:16:50.738Z,99411.75
2022-12-11T08:19:18.289Z,99414.19
2022-12-11T08:21:45.491Z,99413.56
2022-12-11T08:24:12.590Z,99406.00
2022-12-11T08:26:40.813Z,99419.66
2022-12-11T08:29:08.422Z,99407.00
2022-12-11T08:31:35.577Z,99410.41
2022-12-11T08:34:02.782Z,99407.88
2022-12-11T08:36:29.858Z,99412.31
2022-12-11T08:38:57.310Z,99414.16
2022-12-11T08:41:29.511Z,99410.88
2022-12-11T08:43:58.182Z,99406.59
2022-12-11T08:46:36.737Z,99404.97
2022-12-11T08:49:16.991Z,99407.59
2022-12-11T08:51:44.662Z,99410.16
2022-12-11T09:01:55.723Z,99401.66
2022-12-11T09:04:23.255Z,99406.78
2022-12-11T09:06:50.372Z,99394.94
2022-12-11T09:09:17.361Z,99391.47
2022-12-11T09:11:44.336Z,99405.13
2022-12-11T09:14:11.293Z,99407.56
2022-12-11T09:16:40.820Z,99400.00
2022-12-11T09:19:12.653Z,99405.81
2022-12-11T09:21:39.903Z,99410.94
2022-12-11T09:24:07.193Z,99404.63
2022-12-11T09:26:34.203Z,99404.50
2022-12-11T09:29:03.814Z,99390.75
2022-12-11T09:31:33.263Z,99399.22
2022-12-11T09:34:05.989Z,99385.41
2022-12-11T09:36:33.354Z,99393.19
2022-12-11T09:39:02.128Z,99394.69
2022-12-11T09:41:50.735Z,99395.63
2022-12-11T09:44:34.935Z,99392.75
2022-12-11T09:47:02.058Z,99403.94
2022-12-11T09:49:39.358Z,99382.00
2022-12-11T09:52:19.022Z,99381.03
2022-12-11T09:55:00.943Z,99377.59
2022-12-11T09:57:30.526Z,99384.66
2022-12-11T10:00:08.943Z,99392.03
2022-12-11T10:02:58.398Z,99378.50
2022-12-11T10:06:10.291Z,99385.81
2022-12-11T10:08:45.538Z,99379.56
2022-12-11T10:11:28.322Z,99376.75
2022-12-11T10:14:20.434Z,99370.56
2022-12-11T10:16:47.587Z,99393.00
2022-12-11T10:19:23.306Z,99390.47
2022-12-11T10:21:51.553Z,99385.16
2022-12-11T10:25:10.015Z,99375.06
2022-12-11T10:27:31.868Z,99360.56
2022-12-11T10:30:20.574Z,99384.56
2022-12-11T10:33:04.375Z,99367.59
2022-12-11T10:35:51.712Z,99363.38
2022-12-11T10:38:27.600Z,99358.09
2022-12-11T10:41:21.354Z,99353.22
2022-12-11T10:43:51.864Z,99354.16
2022-12-11T10:46:24.819Z,99352.25
2022-12-11T10:48:59.449Z,99341.06
2022-12-11T10:51:32.428Z,99340.03
2022-12-11T10:54:07.324Z,99336.75
2022-12-11T10:56:36.281Z,99338.38
2022-12-11T10:59:03.776Z,99330.03
2022-12-11T11:01:32.397Z,99335.28
2022-12-11T11:04:23.114Z,99324.09
2022-12-11T11:07:02.027Z,99311.41
2022-12-11T11:09:35.665Z,99325.13
2022-12-11T11:12:07.798Z,99312.22
2022-12-11T11:14:35.151Z,99330.97
2022-12-11T11:17:02.182Z,99317.34
2022-12-11T11:19:34.160Z,99306.25
2022-12-11T11:22:07.059Z,99292.09
2022-12-11T11:24:41.180Z,99293.84
2022-12-11T11:27:14.320Z,99294.53
2022-12-11T11:29:41.841Z,99288.72
2022-12-11T11:32:24.043Z,99275.44
2022-12-11T11:34:51.180Z,99280.56
2022-12-11T11:37:36.403Z,99270.09
2022-12-11T11:40:15.205Z,99274.72
2022-12-11T11:43:38.200Z,99269.41
2022-12-11T11:46:22.374Z,99270.41
2022-12-11T11:49:12.580Z,99273.75
2022-12-11T11:52:04.022Z,99258.28
2022-12-11T11:54:36.933Z,99255.81
2022-12-11T11:57:29.862Z,99253.81
2022-12-11T12:00:09.728Z,99248.97
2022-12-11T12:02:41.051Z,99251.28
2022-12-11T12:05:13.383Z,99256.50
2022-12-11T12:08:00.172Z,99247.88
2022-12-11T12:10:48.397Z,99251.47
2022-12-11T12:14:17.603Z,99253.19
2022-12-11T12:17:08.011Z,99246.06
2022-12-11T12:19:59.875Z,99245.50
2022-12-11T12:22:51.604Z,99257.31
2022-12-11T12:25:26.215Z,99239.41
2022-12-11T12:27:58.611Z,99241.94
2022-12-11T12:30:27.315Z,99231.72
2022-12-11T12:33:07.710Z,99237.72
2022-12-11T12:35:54.668Z,99232.44
2022-12-11T12:38:38.175Z,99225.59
2022-12-11T12:41:25.260Z,99244.34
2022-12-11T12:44:00.820Z,99226.34
2022-12-11T12:46:34.314Z,99217.94
2022-12-11T12:49:01.884Z,99227.31
2022-12-11T12:51:29.172Z,99224.56
2022-12-11T12:53:59.776Z,99222.00
2022-12-11T12:56:28.285Z,99213.41
2022-12-11T12:58:55.316Z,99218.53
2022-12-11T13:01:24.689Z,99209.97
2022-12-11T13:04:01.751Z,99208.44
2022-12-11T13:06:36.213Z,99214.19
2022-12-11T13:09:23.847Z,99199.47
2022-12-11T13:11:57.900Z,99199.53
2022-12-11T13:14:28.598Z,99197.84
2022-12-11T13:17:20.537Z,99201.34
2022-12-11T13:19:49.661Z,99218.00
2022-12-11T13:22:16.575Z,99205.16
2022-12-11T13:24:50.575Z,99212.88
2022-12-11T13:27:38.454Z,99224.81
2022-12-11T13:30:26.238Z,99212.81
2022-12-11T13:33:07.034Z,99216.59
2022-12-11T13:35:35.460Z,99215.84
2022-12-11T13:38:13.263Z,99220.75
2022-12-11T13:40:43.226Z,99211.19
2022-12-11T13:43:22.632Z,99208.63
2022-12-11T13:45:55.352Z,99210.44
2022-12-11T13:48:34.006Z,99234.19
2022-12-11T13:51:02.101Z,99223.97
2022-12-11T13:53:29.619Z,99213.97
2022-12-11T13:55:57.995Z,99222.50
2022-12-11T13:58:25.108Z,99221.50
2022-12-11T14:01:05.039Z,99210.59
2022-12-11T14:03:32.536Z,99223.13
2022-12-11T14:06:00.569Z,99207.56
2022-12-11T14:08:43.246Z,99212.72
2022-12-11T14:11:20.944Z,99222.78
2022-12-11T14:13:48.094Z,99216.84
2022-12-11T14:16:21.199Z,99210.34
2022-12-11T14:18:50.435Z,99199.06
2022-12-11T14:21:23.050Z,99205.97
2022-12-11T14:23:55.787Z,99198.81
2022-12-11T14:26:31.741Z,99182.59
2022-12-11T14:28:58.786Z,99190.91
2022-12-11T14:31:37.363Z,99188.50
2022-12-11T14:34:07.663Z,99202.13
2022-12-11T14:36:35.610Z,99197.94
2022-12-11T14:39:07.238Z,99182.50
2022-12-11T14:41:45.179Z,99185.91
2022-12-11T14:44:15.932Z,99195.28
2022-12-11T14:46:55.063Z,99192.84
2022-12-11T14:49:47.567Z,99190.28
2022-12-11T14:52:20.730Z,99188.59
2022-12-11T14:54:54.412Z,99179.31
2022-12-11T14:57:28.124Z,99182.75
2022-12-11T14:59:55.530Z,99185.91
2022-12-11T15:02:35.070Z,99187.00
2022-12-11T15:05:22.337Z,99179.31
2022-12-11T15:08:00.952Z,99181.91
2022-12-11T15:10:57.316Z,99175.22
2022-12-11T15:13:24.731Z,99173.53
2022-12-11T15:15:52.225Z,99165.00
2022-12-11T15:18:24.501Z,99169.34
2022-12-11T15:20:53.670Z,99161.78
2022-12-11T15:23:20.819Z,99159.03
2022-12-11T15:25:59.085Z,99163.19
2022-12-11T15:28:37.473Z,99164.13
2022-12-11T15:31:07.707Z,99154.09
2022-12-11T15:33:46.130Z,99157.25
2022-12-11T15:36:31.493Z,99149.91
2022-12-11T15:38:58.763Z,99144.91
2022-12-11T15:41:25.978Z,99150.97
2022-12-11T15:43:58.556Z,99134.66
2022-12-11T15:46:26.174Z,99140.75
2022-12-11T15:48:53.378Z,99144.94
2022-12-11T15:51:20.459Z,99156.03
2022-12-11T15:53:47.652Z,99148.38
2022-12-11T15:56:18.160Z,99150.09
2022-12-11T15:58:47.339Z,99136.56
2022-12-11T16:01:14.692Z,99131.28
2022-12-11T16:03:42.162Z,99139.97
2022-12-11T16:06:12.731Z,99147.56
2022-12-11T16:08:39.803Z,99134.00
2022-12-11T16:11:07.013Z,99129.81
2022-12-11T16:13:34.219Z,99140.06
2022-12-11T16:16:01.728Z,99129.91
2022-12-11T16:18:28.964Z,99131.53
2022-12-11T16:20:56.336Z,99119.63
2022-12-11T16:23:25.471Z,99118.81
2022-12-11T16:25:54.189Z,99116.31
2022-12-11T16:28:21.353Z,99119.72
2022-12-11T16:30:48.826Z,99112.06
2022-12-11T16:33:15.995Z,99118.88
2022-12-11T16:35:43.220Z,99127.50
2022-12-11T16:38:11.143Z,99116.47
2022-12-11T16:40:38.614Z,99115.63
2022-12-11T16:43:06.094Z,99115.69
2022-12-11T16:45:34.015Z,99109.75
2022-12-11T16:48:03.874Z,99113.16
2022-12-11T16:50:32.297Z,99111.53
2022-12-11T16:53:00.273Z,99117.34
2022-12-11T16:55:27.256Z,99097.72
2022-12-11T16:57:55.336Z,99096.88
2022-12-11T17:00:22.698Z,99107.94
2022-12-11T17:02:50.067Z,99101.19
2022-12-11T17:05:17.685Z,99102.88
2022-12-11T17:07:45.254Z,99088.41
2022-12-11T17:10:12.348Z,99091.88
2022-12-11T17:12:39.560Z,99073.09
2022-12-11T17:15:07.399Z,99081.66
2022-12-11T17:17:34.706Z,99072.22
2022-12-11T17:20:02.157Z,99058.56
2022-12-11T17:22:29.132Z,99071.44
2022-12-11T17:24:56.260Z,99073.16
2022-12-11T17:27:23.295Z,99070.59
2022-12-11T17:29:51.803Z,99064.63
2022-12-11T17:32:20.098Z,99065.38
2022-12-11T17:34:49.707Z,99056.91
2022-12-11T17:37:18.011Z,99059.50
2022-12-11T17:39:45.289Z,99059.50
2022-12-11T17:42:12.298Z,99057.72
2022-12-11T17:44:39.394Z,99053.53
2022-12-11T17:47:11.107Z,99053.50
2022-12-11T17:49:40.607Z,99046.66
2022-12-11T17:52:08.023Z,99062.13
2022-12-11T17:54:35.272Z,99062.13
2022-12-11T17:57:02.670Z,99056.06
2022-12-11T17:59:29.565Z,99065.47
2022-12-11T18:01:56.564Z,99055.22
2022-12-11T18:04:24.131Z,99056.13
2022-12-11T18:06:51.643Z,99057.00
2022-12-11T18:09:19.141Z,99051.03
2022-12-11T18:11:46.410Z,99045.84
2022-12-11T18:14:17.075Z,99051.88
2022-12-11T18:16:45.015Z,99050.16
2022-12-11T18:19:12.173Z,99044.13
2022-12-11T18:21:42.930Z,99045.03
2022-12-11T18:24:10.701Z,99053.56
2022-12-11T18:26:38.208Z,99040.78
2022-12-11T18:29:05.550Z,99047.63
2022-12-11T18:31:35.360Z,99044.13
2022-12-11T18:34:06.496Z,99046.66
2022-12-11T18:36:35.000Z,99052.72
2022-12-11T18:39:01.925Z,99044.09
2022-12-11T18:41:32.243Z,99044.16
2022-12-11T18:44:09.288Z,99039.00
2022-12-11T18:46:37.177Z,99031.31
2022-12-11T18:49:04.368Z,99025.38
2022-12-11T18:51:31.435Z,99027.03
2022-12-11T18:53:58.803Z,99038.91
2022-12-11T18:56:25.752Z,99032.88
2022-12-11T18:58:52.849Z,99015.84
2022-12-11T19:01:22.850Z,99015.91
2022-12-11T19:03:51.293Z,99019.25
2022-12-11T19:06:20.841Z,99010.78
2022-12-11T19:08:48.271Z,99010.72
2022-12-11T19:11:20.624Z,99000.47
2022-12-11T19:13:48.610Z,99011.63
2022-12-11T19:16:24.390Z,99003.09
2022-12-11T19:18:51.808Z,98998.81
2022-12-11T19:21:19.599Z,99012.44
2022-12-11T19:23:47.081Z,99007.31
2022-12-11T19:26:17.490Z,99004.88
2022-12-11T19:28:44.891Z,98999.69
2022-12-11T19:31:13.921Z,98993.72
2022-12-11T19:33:41.850Z,99002.25
2022-12-11T19:36:13.775Z,99010.06
2022-12-11T19:38:42.286Z,99005.66
2022-12-11T19:41:21.753Z,98998.09
2022-12-11T19:43:50.114Z,98997.25
2022-12-11T19:46:18.041Z,99002.31
2022-12-11T19:48:45.219Z,99004.94
2022-12-11T19:51:18.410Z,98998.22
2022-12-11T19:53:46.815Z,98998.97
2022-12-11T19:56:14.892Z,98997.31
2022-12-11T19:58:42.379Z,98987.84
2022-12-11T20:01:10.271Z,98996.47
2022-12-11T20:03:38.138Z,98994.69
2022-12-11T20:06:08.228Z,98990.41
2022-12-11T20:08:44.539Z,98987.00
2022-12-11T20:11:17.594Z,98997.25
2022-12-11T20:13:46.946Z,98993.06
2022-12-11T20:16:14.705Z,98990.56
2022-12-11T20:18:42.719Z,98987.91
2022-12-11T20:21:13.110Z,98991.38
2022-12-11T20:23:42.243Z,98990.47
2022-12-11T20:26:22.514Z,98987.91
2022-12-11T20:28:53.526Z,98988.81
2022-12-11T20:31:26.114Z,98989.69
2022-12-11T20:33:54.378Z,98985.44
2022-12-11T20:36:23.260Z,98985.41
2022-12-11T20:38:51.083Z,98987.13
2022-12-11T20:41:21.421Z,98988.00
2022-12-11T20:43:49.610Z,98976.88
2022-12-11T20:46:18.183Z,98970.91
2022-12-11T20:48:46.015Z,98976.03
2022-12-11T20:51:20.869Z,98974.25
2022-12-11T20:53:57.939Z,98969.22
2022-12-11T20:56:29.610Z,98967.53
2022-12-11T20:58:58.152Z,98970.78
2022-12-11T21:01:28.010Z,98984.56
2022-12-11T21:03:55.648Z,98977.75
2022-12-11T21:06:31.909Z,98975.19
2022-12-11T21:09:00.995Z,98969.25
2022-12-11T21:11:29.321Z,98959.78
2022-12-11T21:13:56.870Z,98962.41
2022-12-11T21:16:24.631Z,98958.06
2022-12-11T21:18:52.139Z,98958.06
2022-12-11T21:21:20.005Z,98949.50
2022-12-11T21:23:47.068Z,98953.78
2022-12-11T21:26:14.399Z,98959.78
2022-12-11T21:28:41.339Z,98952.97
2022-12-11T21:31:11.865Z,98938.41
2022-12-11T21:33:38.986Z,98935.91
2022-12-11T21:36:07.088Z,98940.13
2022-12-11T21:38:34.177Z,98929.03
2022-12-11T21:41:09.475Z,98940.91
2022-12-11T21:43:40.024Z,98935.91
2022-12-11T21:46:16.970Z,98934.13
2022-12-11T21:48:44.535Z,98923.91
2022-12-11T21:51:24.330Z,98930.72
2022-12-11T21:53:52.101Z,98925.53
2022-12-11T21:56:22.740Z,98929.88
2022-12-11T21:58:51.989Z,98930.72
2022-12-11T22:01:23.640Z,98929.88
2022-12-11T22:03:52.469Z,98927.34
2022-12-11T22:06:19.631Z,98942.75
2022-12-11T22:08:49.230Z,98934.25
2022-12-11T22:11:21.979Z,98933.22
2022-12-11T22:13:49.054Z,98934.16
2022-12-11T22:16:16.071Z,98922.19
2022-12-11T22:18:43.153Z,98920.41
2022-12-11T22:21:10.134Z,98917.91
2022-12-11T22:23:41.101Z,98908.44
2022-12-11T22:26:09.130Z,98908.47
2022-12-11T22:28:36.004Z,98917.84
2022-12-11T22:31:04.788Z,98908.47
2022-12-11T22:33:31.747Z,98899.94
2022-12-11T22:35:59.577Z,98899.09
2022-12-11T22:38:26.810Z,98899.94
2022-12-11T22:40:54.610Z,98899.91
2022-12-11T22:43:21.820Z,98899.00
2022-12-11T22:45:49.451Z,98896.47
2022-12-11T22:48:16.530Z,98888.78
2022-12-11T22:50:44.407Z,98892.22
2022-12-11T22:53:11.761Z,98894.78
2022-12-11T22:55:40.027Z,98881.97
2022-12-11T22:58:07.719Z,98887.09
2022-12-11T23:00:35.020Z,98886.22
2022-12-11T23:03:02.530Z,98887.09
2022-12-11T23:05:29.951Z,98890.50
2022-12-11T23:07:57.150Z,98891.34
2022-12-11T23:10:24.266Z,98887.06
2022-12-11T23:12:51.252Z,98874.25
2022-12-11T23:15:18.821Z,98876.81
2022-12-11T23:17:45.760Z,98875.09
2022-12-11T23:20:12.796Z,98879.38
2022-12-11T23:22:39.953Z,98875.91
2022-12-11T23:25:07.429Z,98877.56
2022-12-11T23:27:34.414Z,98877.50
2022-12-11T23:30:01.439Z,98870.66
2022-12-11T23:32:28.386Z,98882.66
2022-12-11T23:34:55.303Z,98876.66
2022-12-11T23:37:22.194Z,98881.81
2022-12-11T23:39:49.176Z,98873.25
2022-12-11T23:42:16.135Z,98884.34
2022-12-11T23:44:43.276Z,98874.09
2022-12-11T23:47:10.207Z,98880.09
2022-12-11T23:49:37.322Z,98875.81
2022-12-11T23:52:04.500Z,98875.78
2022-12-11T23:54:31.775Z,98877.41
2022-12-11T23:56:58.703Z,98870.50
2022-12-11T23:59:25.783Z,98868.78
